createdAt,value
2018-09-05T00:00:34.111Z,16.889954
2018-09-05T00:01:49.991Z,16.980591
2018-09-05T00:03:05.883Z,17.020874
2018-09-05T00:04:21.829Z,17.071228
2018-09-05T00:05:37.787Z,16.910095
2018-09-05T00:06:53.751Z,16.769104
2018-09-05T00:08:09.654Z,16.819458
2018-09-05T00:09:25.602Z,16.910095
2018-09-05T00:10:41.620Z,16.910095
2018-09-05T00:11:57.534Z,16.940308
2018-09-05T00:13:13.576Z,16.829529
2018-09-05T00:14:29.628Z,16.819458
2018-09-05T00:15:45.560Z,16.789246
2018-09-05T00:17:01.511Z,16.829529
2018-09-05T00:18:17.398Z,16.799316
2018-09-05T00:19:33.309Z,16.769104
2018-09-05T00:20:49.329Z,16.829529
2018-09-05T00:22:05.259Z,16.859741
2018-09-05T00:23:21.332Z,16.829529
2018-09-05T00:24:37.384Z,16.829529
2018-09-05T00:25:53.364Z,16.940308
2018-09-05T00:27:09.376Z,16.920166
2018-09-05T00:28:25.323Z,16.8396
2018-09-05T00:29:41.212Z,16.869812
2018-09-05T00:30:57.184Z,16.97052
2018-09-05T00:32:13.124Z,16.920166
2018-09-05T00:33:29.096Z,16.869812
2018-09-05T00:34:45.080Z,16.869812
2018-09-05T00:36:01.046Z,16.8396
2018-09-05T00:37:17.057Z,16.859741
2018-09-05T00:38:32.998Z,16.8396
2018-09-05T00:39:49.073Z,16.769104
2018-09-05T00:41:05.277Z,16.769104
2018-09-05T00:42:21.518Z,16.8396
2018-09-05T00:43:37.603Z,16.769104
2018-09-05T00:44:53.633Z,16.769104
2018-09-05T00:46:09.683Z,16.728821
2018-09-05T00:47:25.623Z,16.859741
2018-09-05T00:48:41.613Z,16.738892
2018-09-05T00:49:57.514Z,16.728821
2018-09-05T00:51:13.417Z,16.648254
2018-09-05T00:52:29.354Z,16.688538
2018-09-05T00:53:45.356Z,16.769104
2018-09-05T00:55:01.317Z,16.71875
2018-09-05T00:56:17.226Z,16.688538
2018-09-05T00:57:33.302Z,16.577759
2018-09-05T00:58:49.344Z,16.537476
2018-09-05T01:00:05.375Z,16.547546
2018-09-05T01:01:21.467Z,16.456909
2018-09-05T01:02:37.531Z,16.497192
2018-09-05T01:03:53.515Z,16.456909
2018-09-05T01:05:09.524Z,16.406555
2018-09-05T01:06:25.478Z,16.456909
2018-09-05T01:07:41.465Z,16.497192
2018-09-05T01:08:57.367Z,16.507263
2018-09-05T01:10:13.282Z,16.547546
2018-09-05T01:11:29.191Z,16.547546
2018-09-05T01:12:45.126Z,16.356201
2018-09-05T01:14:01.275Z,16.487122
2018-09-05T01:15:17.201Z,16.507263
2018-09-05T01:16:33.093Z,16.607971
2018-09-05T01:17:49.199Z,16.537476
2018-09-05T01:19:05.139Z,16.426697
2018-09-05T01:20:21.112Z,16.426697
2018-09-05T01:21:37.195Z,16.436768
2018-09-05T01:22:53.127Z,16.426697
2018-09-05T01:24:09.141Z,16.406555
2018-09-05T01:25:26.015Z,16.426697
2018-09-05T01:26:41.967Z,16.497192
2018-09-05T01:27:58.022Z,16.547546
2018-09-05T01:29:13.906Z,16.58783
2018-09-05T01:30:29.818Z,16.487122
2018-09-05T01:31:45.901Z,16.487122
2018-09-05T01:33:01.902Z,16.456909
2018-09-05T01:34:17.811Z,16.537476
2018-09-05T01:35:33.854Z,16.507263
2018-09-05T01:36:49.711Z,16.537476
2018-09-05T01:38:05.658Z,16.547546
2018-09-05T01:39:21.759Z,16.406555
2018-09-05T01:42:18.712Z,16.366272
2018-09-05T01:43:34.633Z,16.305847
2018-09-05T01:44:50.564Z,16.315918
2018-09-05T01:46:06.530Z,16.396484
2018-09-05T01:47:22.550Z,16.426697
2018-09-05T01:48:38.472Z,16.33606
2018-09-05T01:49:54.463Z,16.426697
2018-09-05T01:51:10.526Z,16.305847
2018-09-05T01:52:26.420Z,16.366272
2018-09-05T01:53:42.440Z,16.33606
2018-09-05T01:54:58.340Z,16.406555
2018-09-05T01:56:14.405Z,16.356201
2018-09-05T01:57:30.349Z,16.21521
2018-09-05T01:58:46.274Z,16.275635
2018-09-05T02:00:02.252Z,16.21521
2018-09-05T02:01:18.131Z,16.235352
2018-09-05T02:02:34.179Z,16.21521
2018-09-05T02:03:50.056Z,16.33606
2018-09-05T02:05:05.996Z,16.487122
2018-09-05T02:06:21.864Z,16.58783
2018-09-05T02:07:37.789Z,16.487122
2018-09-05T02:08:53.707Z,16.33606
2018-09-05T02:11:50.497Z,16.285706
2018-09-05T02:13:06.491Z,16.315918
2018-09-05T02:14:22.418Z,16.33606
2018-09-05T02:15:38.468Z,16.305847
2018-09-05T02:16:54.541Z,16.386414
2018-09-05T02:18:10.648Z,16.396484
2018-09-05T02:19:26.597Z,16.054077
2018-09-05T02:20:42.504Z,16.033936
2018-09-05T02:21:58.571Z,16.003723
2018-09-05T02:23:14.528Z,16.033936
2018-09-05T02:24:30.440Z,15.802307
2018-09-05T02:25:46.529Z,15.802307
2018-09-05T02:27:02.624Z,15.903015
2018-09-05T02:28:18.640Z,15.943298
2018-09-05T02:29:34.687Z,15.923157
2018-09-05T02:30:50.646Z,15.882874
2018-09-05T02:32:07.590Z,15.913086
2018-09-05T02:33:23.644Z,15.903015
2018-09-05T02:34:39.612Z,15.903015
2018-09-05T02:35:55.667Z,15.721741
2018-09-05T02:37:11.580Z,15.520325
2018-09-05T02:38:27.556Z,15.520325
2018-09-05T02:39:43.449Z,15.661316
2018-09-05T02:40:59.363Z,15.802307
2018-09-05T02:42:15.294Z,15.762024
2018-09-05T02:43:31.313Z,15.751953
2018-09-05T02:44:47.275Z,15.762024
2018-09-05T02:46:03.227Z,15.762024
2018-09-05T02:47:19.254Z,15.721741
2018-09-05T02:48:35.307Z,15.701599
2018-09-05T02:49:51.248Z,15.691528
2018-09-05T02:51:07.207Z,15.721741
2018-09-05T02:52:23.269Z,15.621033
2018-09-05T02:53:39.186Z,15.600891
2018-09-05T02:54:55.167Z,15.621033
2018-09-05T02:56:11.194Z,15.600891
2018-09-05T02:57:27.113Z,15.751953
2018-09-05T02:58:43.002Z,15.84259
2018-09-05T02:59:58.882Z,15.812378
2018-09-05T03:01:14.913Z,15.782166
2018-09-05T03:02:30.822Z,15.751953
2018-09-05T03:03:46.792Z,15.701599
2018-09-05T03:05:02.750Z,15.59082
2018-09-05T03:06:18.647Z,15.570679
2018-09-05T03:07:34.583Z,15.500183
2018-09-05T03:08:50.552Z,15.500183
2018-09-05T03:10:06.432Z,15.540466
2018-09-05T03:11:22.407Z,15.359192
2018-09-05T03:12:38.371Z,15.409546
2018-09-05T03:13:54.304Z,15.359192
2018-09-05T03:15:10.263Z,15.409546
2018-09-05T03:16:26.235Z,15.540466
2018-09-05T03:17:42.386Z,15.510254
2018-09-05T03:18:58.275Z,15.449829
2018-09-05T03:20:14.225Z,15.469971
2018-09-05T03:21:30.321Z,15.469971
2018-09-05T03:22:46.260Z,15.510254
2018-09-05T03:24:03.434Z,15.439758
2018-09-05T03:25:19.350Z,15.369263
2018-09-05T03:26:35.345Z,15.288696
2018-09-05T03:27:51.237Z,15.369263
2018-09-05T03:29:07.335Z,15.328979
2018-09-05T03:30:23.231Z,15.359192
2018-09-05T03:31:39.304Z,15.318909
2018-09-05T03:32:55.464Z,15.449829
2018-09-05T03:34:11.384Z,15.500183
2018-09-05T03:35:27.419Z,15.500183
2018-09-05T03:36:43.319Z,15.369263
2018-09-05T03:37:59.220Z,15.369263
2018-09-05T03:39:15.137Z,15.228271
2018-09-05T03:40:31.047Z,15.218201
2018-09-05T03:41:46.991Z,15.318909
2018-09-05T03:43:02.908Z,15.359192
2018-09-05T03:44:18.869Z,15.187988
2018-09-05T03:45:34.884Z,15.359192
2018-09-05T03:46:50.791Z,15.288696
2018-09-05T03:48:06.761Z,15.449829
2018-09-05T03:49:22.812Z,15.369263
2018-09-05T03:50:38.741Z,15.318909
2018-09-05T03:51:54.711Z,15.359192
2018-09-05T03:53:10.750Z,15.298767
2018-09-05T03:54:26.782Z,15.137634
2018-09-05T03:55:42.824Z,15.228271
2018-09-05T03:58:39.523Z,15.187988
2018-09-05T03:59:55.421Z,15.218201
2018-09-05T04:01:11.342Z,15.228271
2018-09-05T04:02:27.399Z,15.369263
2018-09-05T04:03:43.626Z,15.409546
2018-09-05T04:04:59.686Z,15.449829
2018-09-05T04:06:15.803Z,15.439758
2018-09-05T04:07:31.822Z,15.469971
2018-09-05T04:08:47.911Z,15.469971
2018-09-05T04:10:03.882Z,15.328979
2018-09-05T04:13:01.584Z,15.328979
2018-09-05T04:14:17.533Z,15.328979
2018-09-05T04:15:33.580Z,15.318909
2018-09-05T04:16:49.469Z,15.328979
2018-09-05T04:18:05.417Z,15.268555
2018-09-05T04:19:21.477Z,15.318909
2018-09-05T04:20:37.388Z,15.228271
2018-09-05T04:21:53.421Z,15.349121
2018-09-05T04:23:09.294Z,15.318909
2018-09-05T04:24:25.235Z,15.318909
2018-09-05T04:25:41.208Z,15.288696
2018-09-05T04:26:57.275Z,15.097351
2018-09-05T04:28:13.363Z,15.187988
2018-09-05T04:29:29.480Z,15.318909
2018-09-05T04:30:45.483Z,15.167847
2018-09-05T04:32:01.572Z,15.137634
2018-09-05T04:34:58.046Z,15.500183
2018-09-05T04:36:14.096Z,15.389404
2018-09-05T04:37:30.073Z,15.298767
2018-09-05T04:38:46.103Z,15.187988
2018-09-05T04:40:02.066Z,15.137634
2018-09-05T04:41:18.101Z,15.177917
2018-09-05T04:42:34.043Z,15.288696
2018-09-05T04:43:50.020Z,15.177917
2018-09-05T04:45:06.021Z,15.268555
2018-09-05T04:46:21.869Z,15.318909
2018-09-05T04:47:37.921Z,15.288696
2018-09-05T04:48:53.792Z,15.288696
2018-09-05T04:50:09.787Z,15.248413
2018-09-05T04:51:25.903Z,15.177917
2018-09-05T04:52:41.894Z,15.167847
2018-09-05T04:53:57.702Z,15.288696
2018-09-05T04:55:13.591Z,15.359192
2018-09-05T04:56:29.567Z,15.449829
2018-09-05T04:57:45.567Z,15.449829
2018-09-05T04:59:01.507Z,15.298767
2018-09-05T05:00:17.505Z,15.298767
2018-09-05T05:01:33.466Z,15.349121
2018-09-05T05:02:49.509Z,15.449829
2018-09-05T05:04:05.414Z,15.429688
2018-09-05T05:05:21.427Z,15.480042
2018-09-05T05:06:37.344Z,15.429688
2018-09-05T05:07:53.343Z,15.328979
2018-09-05T05:10:50.115Z,15.439758
2018-09-05T05:12:06.186Z,15.298767
2018-09-05T05:13:22.260Z,15.268555
2018-09-05T05:14:38.140Z,15.369263
2018-09-05T05:15:54.044Z,15.449829
2018-09-05T05:17:10.022Z,15.369263
2018-09-05T05:18:26.025Z,15.349121
2018-09-05T05:19:41.940Z,15.328979
2018-09-05T05:20:57.935Z,15.318909
2018-09-05T05:22:13.989Z,15.218201
2018-09-05T05:23:29.905Z,15.147705
2018-09-05T05:24:45.926Z,15.268555
2018-09-05T05:26:01.812Z,15.429688
2018-09-05T05:28:58.498Z,15.288696
2018-09-05T05:30:14.419Z,15.258484
2018-09-05T05:31:30.377Z,15.389404
2018-09-05T05:32:46.624Z,15.469971
2018-09-05T05:34:02.493Z,15.429688
2018-09-05T05:35:18.394Z,15.369263
2018-09-05T05:36:34.299Z,15.449829
2018-09-05T05:37:50.208Z,15.409546
2018-09-05T05:39:06.195Z,15.480042
2018-09-05T05:40:22.163Z,15.480042
2018-09-05T05:41:37.998Z,15.439758
2018-09-05T05:42:54.040Z,15.449829
2018-09-05T05:44:09.950Z,15.409546
2018-09-05T05:45:25.944Z,15.449829
2018-09-05T05:46:41.898Z,15.621033
2018-09-05T05:47:57.801Z,15.631104
2018-09-05T05:49:13.997Z,15.661316
2018-09-05T05:52:10.760Z,15.621033
2018-09-05T05:53:26.783Z,15.631104
2018-09-05T05:54:42.664Z,15.540466
2018-09-05T05:55:58.714Z,15.540466
2018-09-05T05:57:14.601Z,15.661316
2018-09-05T05:58:30.540Z,15.762024
2018-09-05T05:59:46.497Z,15.812378
2018-09-05T06:01:02.579Z,15.84259
2018-09-05T06:02:18.460Z,15.83252
2018-09-05T06:03:34.357Z,15.882874
2018-09-05T06:04:50.246Z,15.913086
2018-09-05T06:06:06.473Z,16.003723
2018-09-05T06:07:22.344Z,16.08429
2018-09-05T06:08:38.583Z,16.023865
2018-09-05T06:09:54.530Z,16.09436
2018-09-05T06:11:10.428Z,16.003723
2018-09-05T06:12:26.431Z,15.983582
2018-09-05T06:13:42.380Z,15.993652
2018-09-05T06:14:58.421Z,16.104431
2018-09-05T06:16:14.400Z,16.033936
2018-09-05T06:17:30.337Z,16.064148
2018-09-05T06:18:46.329Z,16.124573
2018-09-05T06:20:02.236Z,16.184998
2018-09-05T06:21:18.110Z,16.245422
2018-09-05T06:22:34.013Z,16.235352
2018-09-05T06:23:49.928Z,16.386414
2018-09-05T06:25:05.872Z,16.366272
2018-09-05T06:26:21.750Z,16.386414
2018-09-05T06:27:37.696Z,16.396484
2018-09-05T06:28:53.706Z,16.426697
2018-09-05T06:30:09.784Z,16.406555
2018-09-05T06:31:25.793Z,16.396484
2018-09-05T06:32:41.663Z,16.33606
2018-09-05T06:33:57.594Z,16.406555
2018-09-05T06:35:13.567Z,16.436768
2018-09-05T06:36:29.509Z,16.507263
2018-09-05T06:37:45.515Z,16.607971
2018-09-05T06:39:01.567Z,16.738892
2018-09-05T06:40:17.454Z,16.819458
2018-09-05T06:41:33.415Z,16.869812
2018-09-05T06:42:49.377Z,16.950378
2018-09-05T06:44:05.328Z,16.950378
2018-09-05T06:45:21.338Z,17.020874
2018-09-05T06:46:37.274Z,17.020874
2018-09-05T06:47:53.182Z,16.980591
2018-09-05T06:49:09.080Z,17.051086
2018-09-05T06:50:26.068Z,17.020874
2018-09-05T06:51:42.023Z,17.041016
2018-09-05T06:52:58.146Z,16.990662
2018-09-05T06:54:14.133Z,16.980591
2018-09-05T06:55:30.217Z,16.97052
2018-09-05T06:56:46.032Z,17.020874
2018-09-05T06:58:01.941Z,17.10144
2018-09-05T06:59:17.861Z,17.192078
2018-09-05T07:00:33.784Z,17.202148
2018-09-05T07:01:49.703Z,17.202148
2018-09-05T07:03:05.616Z,17.282715
2018-09-05T07:04:21.535Z,17.34314
2018-09-05T07:05:37.528Z,17.312927
2018-09-05T07:06:53.601Z,17.282715
2018-09-05T07:08:09.508Z,17.282715
2018-09-05T07:09:25.502Z,17.282715
2018-09-05T07:10:41.400Z,17.282715
2018-09-05T07:11:57.740Z,17.34314
2018-09-05T07:13:13.706Z,17.373352
2018-09-05T07:14:29.880Z,17.373352
2018-09-05T07:15:45.847Z,17.383423
2018-09-05T07:17:01.894Z,17.35321
2018-09-05T07:18:17.833Z,17.383423
2018-09-05T07:19:33.782Z,17.494202
2018-09-05T07:20:49.677Z,17.524414
2018-09-05T07:22:06.753Z,17.625122
2018-09-05T07:23:22.680Z,17.675476
2018-09-05T07:24:38.602Z,17.675476
2018-09-05T07:25:54.481Z,17.574768
2018-09-05T07:27:10.528Z,17.60498
2018-09-05T07:28:26.510Z,17.705688
2018-09-05T07:29:42.507Z,17.745972
2018-09-05T07:30:58.728Z,17.756042
2018-09-05T07:32:14.507Z,17.816467
2018-09-05T07:33:30.570Z,17.786255
2018-09-05T07:34:46.549Z,17.816467
2018-09-05T07:36:02.504Z,17.796326
2018-09-05T07:37:18.447Z,17.816467
2018-09-05T07:38:34.395Z,17.85675
2018-09-05T07:39:50.371Z,17.685547
2018-09-05T07:41:06.372Z,17.786255
2018-09-05T07:42:22.207Z,17.937317
2018-09-05T07:43:38.242Z,17.947388
2018-09-05T07:44:54.233Z,17.997742
2018-09-05T07:46:10.282Z,18.027954
2018-09-05T07:47:26.213Z,18.027954
2018-09-05T07:48:42.192Z,18.088379
2018-09-05T07:49:58.170Z,18.279724
2018-09-05T07:51:14.148Z,18.360291
2018-09-05T07:52:30.191Z,18.370361
2018-09-05T07:53:46.132Z,18.390503
2018-09-05T07:55:02.125Z,18.420715
2018-09-05T07:56:18.113Z,18.450928
2018-09-05T07:57:34.081Z,18.511353
2018-09-05T07:58:50.120Z,18.48114
2018-09-05T08:00:06.131Z,18.491211
2018-09-05T08:01:22.055Z,18.521423
2018-09-05T08:02:38.034Z,18.460999
2018-09-05T08:03:53.953Z,18.571777
2018-09-05T08:05:10.109Z,18.551636
2018-09-05T08:06:26.113Z,18.491211
2018-09-05T08:07:42.090Z,18.340149
2018-09-05T08:08:58.125Z,18.108521
2018-09-05T08:10:14.153Z,18.259583
2018-09-05T08:11:30.066Z,18.420715
2018-09-05T08:12:46.078Z,18.410645
2018-09-05T08:14:02.034Z,18.48114
2018-09-05T08:15:18.058Z,18.420715
2018-09-05T08:16:34.072Z,18.410645
2018-09-05T08:17:50.029Z,18.420715
2018-09-05T08:19:06.052Z,18.48114
2018-09-05T08:20:22.100Z,18.491211
2018-09-05T08:21:38.051Z,18.340149
2018-09-05T08:22:54.016Z,18.370361
2018-09-05T08:24:10.057Z,18.521423
2018-09-05T08:25:25.966Z,18.60199
2018-09-05T08:26:42.002Z,18.430786
2018-09-05T08:27:57.956Z,18.189087
2018-09-05T08:29:14.145Z,18.360291
2018-09-05T08:30:30.192Z,18.551636
2018-09-05T08:31:46.289Z,18.632202
2018-09-05T08:33:02.224Z,18.612061
2018-09-05T08:34:18.224Z,18.491211
2018-09-05T08:35:34.358Z,18.420715
2018-09-05T08:36:50.354Z,18.309937
2018-09-05T08:38:06.077Z,18.430786
2018-09-05T08:39:22.019Z,18.632202
2018-09-05T08:40:37.954Z,18.511353
2018-09-05T08:41:54.113Z,18.430786
2018-09-05T08:43:10.123Z,18.340149
2018-09-05T08:44:26.122Z,18.491211
2018-09-05T08:45:42.230Z,18.521423
2018-09-05T08:46:58.145Z,18.712769
2018-09-05T08:48:14.118Z,18.964539
2018-09-05T08:49:30.094Z,18.924255
2018-09-05T08:50:46.213Z,18.863831
2018-09-05T08:52:02.198Z,18.85376
2018-09-05T08:53:18.475Z,18.712769
2018-09-05T08:54:34.562Z,18.783264
2018-09-05T08:55:50.490Z,18.85376
2018-09-05T08:57:06.437Z,19.045105
2018-09-05T08:58:22.339Z,18.894043
2018-09-05T08:59:38.314Z,18.924255
2018-09-05T09:00:54.371Z,18.924255
2018-09-05T09:02:10.392Z,19.035034
2018-09-05T09:03:26.504Z,18.833618
2018-09-05T09:04:42.626Z,18.924255
2018-09-05T09:05:58.517Z,18.944397
2018-09-05T09:07:14.549Z,18.712769
2018-09-05T09:08:30.573Z,19.004822
2018-09-05T09:09:46.543Z,19.004822
2018-09-05T09:11:02.543Z,19.035034
2018-09-05T09:12:18.485Z,19.115601
2018-09-05T09:13:34.593Z,19.296875
2018-09-05T09:14:50.567Z,19.478149
2018-09-05T09:16:06.757Z,18.924255
2018-09-05T09:17:22.753Z,18.813477
2018-09-05T09:18:38.716Z,18.742981
2018-09-05T09:19:54.629Z,18.672485
2018-09-05T09:21:11.746Z,18.712769
2018-09-05T09:22:27.724Z,18.642273
2018-09-05T09:23:43.676Z,19.004822
2018-09-05T09:24:59.644Z,19.377441
2018-09-05T09:26:15.733Z,19.468079
2018-09-05T09:27:31.717Z,19.568787
2018-09-05T09:28:47.813Z,19.478149
2018-09-05T09:30:03.783Z,19.447937
2018-09-05T09:31:19.731Z,19.558716
2018-09-05T09:32:35.711Z,19.699707
2018-09-05T09:33:51.678Z,19.639282
2018-09-05T09:35:07.589Z,19.810486
2018-09-05T09:36:23.634Z,19.780273
2018-09-05T09:37:39.590Z,19.870911
2018-09-05T09:38:55.704Z,19.568787
2018-09-05T09:40:11.717Z,19.558716
2018-09-05T09:41:27.640Z,19.437866
2018-09-05T09:42:43.638Z,19.286804
2018-09-05T09:43:59.837Z,19.478149
2018-09-05T09:45:15.815Z,19.699707
2018-09-05T09:46:31.931Z,19.588928
2018-09-05T09:47:47.928Z,19.216309
2018-09-05T09:49:03.844Z,18.98468
2018-09-05T09:50:20.073Z,19.266663
2018-09-05T09:51:36.080Z,19.447937
2018-09-05T09:52:52.028Z,19.639282
2018-09-05T09:54:08.056Z,19.407654
2018-09-05T09:55:24.065Z,19.065247
2018-09-05T09:58:33.247Z,19.518433
2018-09-05T09:59:49.225Z,19.709778
2018-09-05T10:01:05.124Z,19.870911
2018-09-05T10:02:21.078Z,19.99176
2018-09-05T10:03:37.144Z,20.042114
2018-09-05T10:04:52.985Z,19.931335
2018-09-05T10:06:08.810Z,19.558716
2018-09-05T10:07:24.744Z,19.699707
2018-09-05T10:08:41.270Z,19.750061
2018-09-05T10:09:57.565Z,19.971619
2018-09-05T10:11:13.299Z,19.850769
2018-09-05T10:12:29.285Z,19.669495
2018-09-05T10:13:45.233Z,19.73999
2018-09-05T10:15:01.396Z,19.810486
2018-09-05T10:16:18.230Z,19.548645
2018-09-05T10:17:35.216Z,19.639282
2018-09-05T10:18:51.271Z,19.558716
2018-09-05T10:20:07.353Z,19.588928
2018-09-05T10:21:23.452Z,19.588928
2018-09-05T10:22:39.422Z,19.619141
2018-09-05T10:23:55.345Z,19.810486
2018-09-05T10:25:11.379Z,19.750061
2018-09-05T10:26:27.480Z,19.780273
2018-09-05T10:27:43.538Z,19.99176
2018-09-05T10:28:59.453Z,20.24353
2018-09-05T10:30:15.508Z,20.263672
2018-09-05T10:31:31.516Z,19.931335
2018-09-05T10:32:47.385Z,19.891052
2018-09-05T10:34:03.280Z,19.780273
2018-09-05T10:35:19.238Z,19.850769
2018-09-05T10:36:35.320Z,19.941406
2018-09-05T10:37:51.229Z,20.082397
2018-09-05T10:39:07.294Z,20.344238
2018-09-05T10:40:23.292Z,20.183105
2018-09-05T10:41:39.270Z,19.901123
2018-09-05T10:42:55.314Z,20.032043
2018-09-05T10:44:11.408Z,20.152893
2018-09-05T10:45:27.327Z,20.142822
2018-09-05T10:46:43.325Z,20.303955
2018-09-05T10:47:59.270Z,20.4953
2018-09-05T10:49:15.309Z,20.515442
2018-09-05T10:50:31.323Z,20.475159
2018-09-05T10:51:47.330Z,20.24353
2018-09-05T10:53:03.350Z,20.4953
2018-09-05T10:54:19.269Z,20.575867
2018-09-05T10:55:35.188Z,20.525513
2018-09-05T10:56:51.111Z,20.475159
2018-09-05T10:58:08.073Z,20.444946
2018-09-05T10:59:24.011Z,20.344238
2018-09-05T11:00:39.924Z,20.122681
2018-09-05T11:01:55.916Z,20.11261
2018-09-05T11:03:11.885Z,20.072327
2018-09-05T11:04:27.950Z,20.001831
2018-09-05T11:05:43.855Z,19.971619
2018-09-05T11:06:59.789Z,20.303955
2018-09-05T11:08:15.738Z,20.4953
2018-09-05T11:09:31.707Z,20.475159
2018-09-05T11:10:48.858Z,20.585938
2018-09-05T11:12:04.862Z,20.797424
2018-09-05T11:13:20.948Z,21.129761
2018-09-05T11:14:36.900Z,21.069336
2018-09-05T11:15:53.080Z,20.857849
2018-09-05T11:17:09.036Z,20.767212
2018-09-05T11:18:25.192Z,20.666504
2018-09-05T11:19:41.290Z,20.918274
2018-09-05T11:20:57.378Z,20.978699
2018-09-05T11:22:13.307Z,20.877991
2018-09-05T11:23:29.335Z,20.656433
2018-09-05T11:24:46.230Z,20.918274
2018-09-05T11:26:02.329Z,20.696716
2018-09-05T11:27:18.243Z,20.696716
2018-09-05T11:28:34.235Z,20.99884
2018-09-05T11:29:50.196Z,21.230469
2018-09-05T11:31:06.270Z,21.25061
2018-09-05T11:32:22.239Z,21.079407
2018-09-05T11:33:38.148Z,21.129761
2018-09-05T11:34:54.159Z,21.401672
2018-09-05T11:36:10.084Z,21.532593
2018-09-05T11:37:26.052Z,21.452026
2018-09-05T11:38:42.000Z,21.260681
2018-09-05T11:39:57.958Z,21.321106
2018-09-05T11:41:13.894Z,21.431885
2018-09-05T11:42:29.875Z,21.542664
2018-09-05T11:43:45.984Z,21.663513
2018-09-05T11:45:01.974Z,21.955566
2018-09-05T11:46:17.934Z,21.875
2018-09-05T11:47:33.955Z,21.965637
2018-09-05T11:48:49.967Z,21.804504
2018-09-05T11:50:05.912Z,21.834717
2018-09-05T11:51:21.956Z,22.036133
2018-09-05T11:52:37.876Z,21.935425
2018-09-05T11:53:53.802Z,21.915283
2018-09-05T11:55:09.836Z,22.156982
2018-09-05T11:56:25.870Z,22.368469
2018-09-05T11:57:41.812Z,22.308044
2018-09-05T11:58:57.855Z,22.297974
2018-09-05T12:00:13.830Z,22.116699
2018-09-05T12:01:29.796Z,22.146912
2018-09-05T12:02:45.690Z,22.438965
2018-09-05T12:04:01.607Z,22.519531
2018-09-05T12:05:17.563Z,22.207336
2018-09-05T12:06:33.459Z,22.338257
2018-09-05T12:07:49.510Z,22.37854
2018-09-05T12:09:05.489Z,22.328186
2018-09-05T12:10:21.419Z,22.428894
2018-09-05T12:11:37.466Z,22.37854
2018-09-05T12:12:53.585Z,22.529602
2018-09-05T12:14:09.619Z,22.771301
2018-09-05T12:15:25.605Z,22.610168
2018-09-05T12:16:41.559Z,22.650452
2018-09-05T12:17:57.521Z,23.103638
2018-09-05T12:19:13.478Z,22.952576
2018-09-05T12:20:29.457Z,22.962646
2018-09-05T12:21:45.440Z,22.76123
2018-09-05T12:23:01.456Z,22.831726
2018-09-05T12:24:17.386Z,23.023071
2018-09-05T12:25:33.270Z,22.811584
2018-09-05T12:26:49.206Z,22.700806
2018-09-05T12:28:05.358Z,22.63031
2018-09-05T12:29:21.264Z,22.731018
2018-09-05T12:30:37.334Z,22.650452
2018-09-05T12:31:53.291Z,22.731018
2018-09-05T12:33:09.294Z,22.781372
2018-09-05T12:34:25.274Z,22.861938
2018-09-05T12:35:41.178Z,23.043213
2018-09-05T12:36:57.259Z,22.962646
2018-09-05T12:38:13.395Z,23.073425
2018-09-05T12:39:29.221Z,23.063354
2018-09-05T12:40:45.181Z,23.083496
2018-09-05T12:42:01.176Z,23.204346
2018-09-05T12:43:17.092Z,23.214417
2018-09-05T12:44:33.136Z,23.184204
2018-09-05T12:45:49.025Z,23.325195
2018-09-05T12:47:05.056Z,23.103638
2018-09-05T12:48:21.008Z,23.214417
2018-09-05T12:49:36.901Z,23.355408
2018-09-05T12:50:53.068Z,23.174133
2018-09-05T12:52:08.966Z,23.214417
2018-09-05T12:53:24.914Z,23.204346
2018-09-05T12:54:40.817Z,23.214417
2018-09-05T12:55:56.761Z,23.2547
2018-09-05T12:57:12.699Z,23.325195
2018-09-05T12:58:28.717Z,23.516541
2018-09-05T12:59:44.780Z,23.687744
2018-09-05T13:01:00.746Z,23.738098
2018-09-05T13:02:16.647Z,23.999939
2018-09-05T13:03:32.779Z,23.536682
2018-09-05T13:04:48.690Z,23.476257
2018-09-05T13:06:04.596Z,23.335266
2018-09-05T13:07:20.585Z,23.476257
2018-09-05T13:08:36.591Z,23.516541
2018-09-05T13:09:52.566Z,23.435974
2018-09-05T13:11:08.558Z,23.546753
2018-09-05T13:12:24.566Z,23.63739
2018-09-05T13:13:40.505Z,23.879089
2018-09-05T13:14:56.485Z,24.030151
2018-09-05T13:16:12.445Z,23.848877
2018-09-05T13:17:28.369Z,23.707886
2018-09-05T13:18:44.353Z,23.808594
2018-09-05T13:20:00.304Z,23.818665
2018-09-05T13:21:16.261Z,23.75824
2018-09-05T13:22:32.203Z,24.070435
2018-09-05T13:23:48.342Z,24.110718
2018-09-05T13:25:04.287Z,24.181213
2018-09-05T13:26:20.330Z,24.01001
2018-09-05T13:27:36.282Z,24.161072
2018-09-05T13:28:52.220Z,24.221497
2018-09-05T13:30:08.175Z,24.130859
2018-09-05T13:31:24.079Z,24.211426
2018-09-05T13:32:40.160Z,24.312134
2018-09-05T13:33:56.196Z,24.362488
2018-09-05T13:35:12.135Z,24.322205
2018-09-05T13:36:28.126Z,24.181213
2018-09-05T13:37:44.068Z,23.88916
2018-09-05T13:39:00.029Z,24.01001
2018-09-05T13:40:15.997Z,24.251709
2018-09-05T13:41:31.958Z,24.594116
2018-09-05T13:42:48.057Z,24.563904
2018-09-05T13:44:03.990Z,24.553833
2018-09-05T13:45:20.011Z,24.26178
2018-09-05T13:46:36.137Z,24.372559
2018-09-05T13:47:52.081Z,24.281921
2018-09-05T13:49:08.048Z,24.402771
2018-09-05T13:50:24.198Z,24.372559
2018-09-05T13:51:40.065Z,24.372559
2018-09-05T13:52:56.096Z,24.432983
2018-09-05T13:54:12.007Z,24.745178
2018-09-05T13:55:27.958Z,24.614258
2018-09-05T13:56:44.099Z,24.694824
2018-09-05T13:58:00.049Z,24.463196
2018-09-05T13:59:16.009Z,24.584045
2018-09-05T14:00:31.967Z,24.443054
2018-09-05T14:01:47.944Z,24.26178
2018-09-05T14:03:03.944Z,24.191284
2018-09-05T14:04:19.984Z,24.402771
2018-09-05T14:05:36.082Z,24.362488
2018-09-05T14:06:52.066Z,24.503479
2018-09-05T14:08:07.991Z,24.362488
2018-09-05T14:09:24.003Z,24.251709
2018-09-05T14:10:40.075Z,24.463196
2018-09-05T14:11:56.170Z,24.312134
2018-09-05T14:13:12.142Z,24.51355
2018-09-05T14:14:28.100Z,24.473267
2018-09-05T14:15:44.151Z,24.614258
2018-09-05T14:17:00.198Z,24.735107
2018-09-05T14:18:16.149Z,24.654541
2018-09-05T14:19:33.389Z,24.553833
2018-09-05T14:20:49.410Z,24.785461
2018-09-05T14:22:05.339Z,24.845886
2018-09-05T14:23:21.341Z,24.432983
2018-09-05T14:24:37.234Z,24.241638
2018-09-05T14:25:53.511Z,24.312134
2018-09-05T14:27:09.431Z,24.241638
2018-09-05T14:28:25.422Z,24.312134
2018-09-05T14:29:41.377Z,24.563904
2018-09-05T14:30:57.308Z,24.855957
2018-09-05T14:32:13.275Z,24.563904
2018-09-05T14:33:29.318Z,24.634399
2018-09-05T14:34:45.317Z,25.007019
2018-09-05T14:36:01.264Z,25.389709
2018-09-05T14:37:17.276Z,25.158081
2018-09-05T14:38:33.273Z,25.158081
2018-09-05T14:39:49.298Z,24.876099
2018-09-05T14:41:05.301Z,24.886169
2018-09-05T14:42:21.207Z,25.107727
2018-09-05T14:43:37.335Z,25.208435
2018-09-05T14:44:53.298Z,25.359497